createdAt,value
2017-05-07T00:00:26.610Z,0
2017-05-07T00:01:48.835Z,0
2017-05-07T00:03:11.310Z,0
2017-05-07T00:04:33.524Z,0
2017-05-07T00:05:56.350Z,0
2017-05-07T00:07:18.182Z,0
2017-05-07T00:08:40.667Z,0
2017-05-07T00:10:02.618Z,0
2017-05-07T00:11:25.581Z,0
2017-05-07T00:12:48.049Z,0
2017-05-07T00:14:09.650Z,0
2017-05-07T00:15:31.285Z,0
2017-05-07T00:16:53.730Z,0
2017-05-07T00:18:16.218Z,0
2017-05-07T00:19:38.360Z,0
2017-05-07T00:21:00.630Z,0
2017-05-07T00:22:22.450Z,0
2017-05-07T00:23:44.898Z,0
2017-05-07T00:25:06.090Z,0
2017-05-07T00:26:27.979Z,0
2017-05-07T00:27:50.204Z,0
2017-05-07T00:29:11.843Z,0
2017-05-07T00:30:33.981Z,0
2017-05-07T00:31:56.130Z,0
2017-05-07T00:33:18.909Z,0
2017-05-07T00:34:41.507Z,0
2017-05-07T00:36:03.661Z,0
2017-05-07T00:37:26.272Z,0
2017-05-07T00:38:48.982Z,0
2017-05-07T00:40:10.930Z,0
2017-05-07T00:41:32.462Z,0
2017-05-07T00:42:54.361Z,0
2017-05-07T00:44:16.237Z,0
2017-05-07T00:45:37.825Z,0
2017-05-07T00:46:59.774Z,0
2017-05-07T00:48:21.616Z,0
2017-05-07T00:49:43.160Z,0
2017-05-07T00:51:05.013Z,0
2017-05-07T00:52:26.836Z,0
2017-05-07T00:53:49.123Z,0
2017-05-07T00:55:11.896Z,0
2017-05-07T00:56:33.742Z,0
2017-05-07T00:57:55.880Z,0
2017-05-07T00:59:17.731Z,0
2017-05-07T01:00:40.440Z,0
2017-05-07T01:02:02.950Z,0
2017-05-07T01:03:25.145Z,0
2017-05-07T01:04:46.373Z,0
2017-05-07T01:06:09.641Z,0
2017-05-07T01:07:31.160Z,0
2017-05-07T01:08:52.781Z,0
2017-05-07T01:10:14.987Z,0
2017-05-07T01:11:36.501Z,0
2017-05-07T01:12:58.671Z,0
2017-05-07T01:14:20.940Z,0
2017-05-07T01:15:42.701Z,0
2017-05-07T01:17:04.910Z,0
2017-05-07T01:18:26.744Z,0
2017-05-07T01:19:48.281Z,0
2017-05-07T01:21:10.541Z,0
2017-05-07T01:22:33.071Z,0
2017-05-07T01:23:55.361Z,0
2017-05-07T01:25:17.829Z,0
2017-05-07T01:26:39.656Z,0
2017-05-07T01:28:02.163Z,0
2017-05-07T01:29:24.010Z,0
2017-05-07T01:30:45.505Z,0
2017-05-07T01:32:07.325Z,0
2017-05-07T01:33:29.846Z,0
2017-05-07T01:34:51.701Z,0
2017-05-07T01:36:13.855Z,0
2017-05-07T01:37:35.679Z,0
2017-05-07T01:38:57.561Z,0
2017-05-07T01:40:19.711Z,0
2017-05-07T01:41:41.272Z,0
2017-05-07T01:43:03.429Z,0
2017-05-07T01:44:25.621Z,0
2017-05-07T01:45:47.581Z,0
2017-05-07T01:47:09.740Z,0
2017-05-07T01:48:31.247Z,0
2017-05-07T01:49:53.099Z,0
2017-05-07T01:51:15.220Z,0
2017-05-07T01:52:37.052Z,0
2017-05-07T01:53:59.188Z,0
2017-05-07T01:55:22.005Z,0
2017-05-07T01:56:43.540Z,0
2017-05-07T01:58:05.401Z,0
2017-05-07T01:59:27.277Z,0
2017-05-07T02:00:49.039Z,0
2017-05-07T02:02:11.220Z,0
2017-05-07T02:03:33.547Z,0
2017-05-07T02:04:55.997Z,0
2017-05-07T02:06:17.900Z,0
2017-05-07T02:07:39.423Z,0
2017-05-07T02:09:00.932Z,0
2017-05-07T02:10:23.089Z,0
2017-05-07T02:11:45.615Z,0
2017-05-07T02:13:07.760Z,0
2017-05-07T02:14:29.908Z,0
2017-05-07T02:15:52.039Z,0
2017-05-07T02:17:14.229Z,0
2017-05-07T02:18:36.384Z,0
2017-05-07T02:19:58.903Z,0
2017-05-07T02:21:20.421Z,0
2017-05-07T02:22:42.646Z,0
2017-05-07T02:24:04.694Z,0
2017-05-07T02:25:26.837Z,0
2017-05-07T02:26:48.657Z,0
2017-05-07T02:28:10.857Z,0
2017-05-07T02:29:33.054Z,0
2017-05-07T02:30:54.354Z,0
2017-05-07T02:32:16.497Z,0
2017-05-07T02:33:38.599Z,0
2017-05-07T02:35:00.469Z,0
2017-05-07T02:36:21.671Z,0
2017-05-07T02:37:42.868Z,0
2017-05-07T02:39:05.260Z,0
2017-05-07T02:40:27.454Z,0
2017-05-07T02:41:48.979Z,0
2017-05-07T02:43:10.510Z,0
2017-05-07T02:44:32.838Z,0
2017-05-07T02:45:55.320Z,0
2017-05-07T02:47:16.558Z,0
2017-05-07T02:48:38.398Z,0
2017-05-07T02:50:00.918Z,0
2017-05-07T02:51:22.753Z,0
2017-05-07T02:52:44.899Z,0
2017-05-07T02:54:06.416Z,0
2017-05-07T02:55:28.238Z,0
2017-05-07T02:56:50.099Z,0
2017-05-07T02:58:12.673Z,0
2017-05-07T02:59:34.597Z,0
2017-05-07T03:00:57.372Z,0
2017-05-07T03:02:19.829Z,0
2017-05-07T03:03:41.979Z,0
2017-05-07T03:05:03.510Z,0
2017-05-07T03:06:25.936Z,4
2017-05-07T03:07:47.875Z,4
2017-05-07T03:09:09.710Z,0
2017-05-07T03:10:31.854Z,4
2017-05-07T03:11:53.995Z,4
2017-05-07T03:13:16.168Z,4
2017-05-07T03:14:37.995Z,4
2017-05-07T03:15:59.527Z,8
2017-05-07T03:17:21.977Z,8
2017-05-07T03:18:43.188Z,8
2017-05-07T03:20:05.329Z,8
2017-05-07T03:21:27.481Z,8
2017-05-07T03:22:49.719Z,12
2017-05-07T03:24:11.550Z,16
2017-05-07T03:25:33.375Z,16
2017-05-07T03:26:55.189Z,16
2017-05-07T03:28:17.638Z,20
2017-05-07T03:29:39.477Z,24
2017-05-07T03:31:01.307Z,28
2017-05-07T03:32:22.947Z,28
2017-05-07T03:33:45.397Z,32
2017-05-07T03:35:06.587Z,40
2017-05-07T03:36:28.197Z,44
2017-05-07T03:37:50.045Z,52
2017-05-07T03:39:11.895Z,60
2017-05-07T03:40:33.400Z,72
2017-05-07T03:41:55.863Z,84
2017-05-07T03:43:17.369Z,96
2017-05-07T03:44:38.897Z,108
2017-05-07T03:46:00.118Z,116
2017-05-07T03:47:21.793Z,128
2017-05-07T03:48:43.626Z,144
2017-05-07T03:50:05.800Z,152
2017-05-07T03:51:27.318Z,164
2017-05-07T03:52:49.520Z,172
2017-05-07T03:54:11.666Z,184
2017-05-07T03:55:33.509Z,192
2017-05-07T03:56:55.651Z,200
2017-05-07T03:58:17.875Z,200
2017-05-07T03:59:39.388Z,204
2017-05-07T04:01:01.828Z,212
2017-05-07T04:02:23.254Z,228
2017-05-07T04:03:45.098Z,260
2017-05-07T04:05:07.545Z,300
2017-05-07T04:06:30.291Z,340
2017-05-07T04:07:51.848Z,368
2017-05-07T04:09:14.409Z,388
2017-05-07T04:10:36.565Z,416
2017-05-07T04:11:58.809Z,448
2017-05-07T04:13:20.638Z,480
2017-05-07T04:14:42.463Z,504
2017-05-07T04:16:04.298Z,516
2017-05-07T04:17:26.116Z,516
2017-05-07T04:18:47.645Z,504
2017-05-07T04:20:10.127Z,504
2017-05-07T04:21:32.320Z,504
2017-05-07T04:22:54.809Z,512
2017-05-07T04:24:16.657Z,524
2017-05-07T04:25:38.797Z,528
2017-05-07T04:27:01.002Z,524
2017-05-07T04:28:22.869Z,528
2017-05-07T04:29:44.705Z,544
2017-05-07T04:31:06.583Z,568
2017-05-07T04:32:27.879Z,592
2017-05-07T04:33:49.687Z,620
2017-05-07T04:35:11.215Z,656
2017-05-07T04:36:33.054Z,668
2017-05-07T04:37:54.970Z,660
2017-05-07T04:39:17.191Z,648
2017-05-07T04:40:39.096Z,644
2017-05-07T04:42:00.956Z,660
2017-05-07T04:43:23.736Z,696
2017-05-07T04:44:45.559Z,736
2017-05-07T04:46:08.079Z,780
2017-05-07T04:47:29.968Z,800
2017-05-07T04:48:52.118Z,816
2017-05-07T04:50:13.992Z,808
2017-05-07T04:51:35.918Z,800
2017-05-07T04:52:58.516Z,808
2017-05-07T04:54:20.348Z,836
2017-05-07T04:55:42.536Z,876
2017-05-07T04:57:05.028Z,904
2017-05-07T04:58:26.855Z,900
2017-05-07T04:59:48.054Z,864
2017-05-07T05:01:09.856Z,812
2017-05-07T05:02:31.714Z,812
2017-05-07T05:03:53.544Z,856
2017-05-07T05:05:15.406Z,908
2017-05-07T05:06:37.839Z,1000
2017-05-07T05:07:59.678Z,1116
2017-05-07T05:09:21.348Z,1216
2017-05-07T05:10:42.880Z,1280
2017-05-07T05:12:05.140Z,1348
2017-05-07T05:13:27.266Z,1428
2017-05-07T05:14:49.861Z,1516
2017-05-07T05:16:11.408Z,1624
2017-05-07T05:17:32.918Z,1696
2017-05-07T05:18:55.068Z,1776
2017-05-07T05:20:16.999Z,1868
2017-05-07T05:21:39.173Z,1964
2017-05-07T05:23:01.877Z,2068
2017-05-07T05:24:23.699Z,2172
2017-05-07T05:25:45.538Z,2288
2017-05-07T05:27:07.707Z,2404
2017-05-07T05:28:29.852Z,2516
2017-05-07T05:29:51.436Z,2612
2017-05-07T05:31:13.261Z,2700
2017-05-07T05:32:35.718Z,2824
2017-05-07T05:33:57.877Z,2960
2017-05-07T05:35:19.722Z,3112
2017-05-07T05:36:41.857Z,3276
2017-05-07T05:38:04.024Z,3452
2017-05-07T05:39:26.847Z,3632
2017-05-07T05:40:48.350Z,3804
2017-05-07T05:42:10.497Z,3944
2017-05-07T05:43:32.327Z,4064
2017-05-07T05:44:54.151Z,4176
2017-05-07T05:46:16.311Z,4304
2017-05-07T05:47:38.465Z,4504
2017-05-07T05:48:59.971Z,4668
2017-05-07T05:50:22.410Z,4800
2017-05-07T05:51:44.220Z,4988
2017-05-07T05:53:06.389Z,5192
2017-05-07T05:54:28.928Z,5408
2017-05-07T05:55:50.763Z,5696
2017-05-07T05:57:13.212Z,6032
2017-05-07T05:58:34.409Z,6400
2017-05-07T05:59:56.250Z,6772
2017-05-07T06:01:18.379Z,7028
2017-05-07T06:02:40.848Z,7240
2017-05-07T06:04:02.985Z,7580
2017-05-07T06:05:25.168Z,8060
2017-05-07T06:06:47.295Z,8676
2017-05-07T06:08:09.129Z,9324
2017-05-07T06:09:31.032Z,10112
2017-05-07T06:10:52.561Z,10920
2017-05-07T06:12:14.421Z,11720
2017-05-07T06:13:35.929Z,12420
2017-05-07T06:14:58.081Z,13024
2017-05-07T06:16:20.049Z,13672
2017-05-07T06:17:42.893Z,14452
2017-05-07T06:19:04.739Z,15260
2017-05-07T06:20:26.260Z,15984
2017-05-07T06:21:48.089Z,16480
2017-05-07T06:23:10.220Z,16480
2017-05-07T06:24:32.381Z,16084
2017-05-07T06:25:54.562Z,15896
2017-05-07T06:27:16.162Z,15920
2017-05-07T06:28:37.986Z,16144
2017-05-07T06:29:59.507Z,16768
2017-05-07T06:31:21.029Z,17472
2017-05-07T06:32:42.870Z,18080
2017-05-07T06:34:05.160Z,18112
2017-05-07T06:35:27.007Z,17856
2017-05-07T06:36:49.227Z,17760
2017-05-07T06:38:11.702Z,18080
2017-05-07T06:39:33.599Z,18944
2017-05-07T06:40:56.115Z,20320
2017-05-07T06:42:18.601Z,21376
2017-05-07T06:43:40.813Z,21152
2017-05-07T06:45:03.330Z,20704
2017-05-07T06:46:25.484Z,20608
2017-05-07T06:47:47.759Z,21088
2017-05-07T06:49:09.984Z,21632
2017-05-07T06:50:32.427Z,24320
2017-05-07T06:51:54.403Z,25024
2017-05-07T06:53:16.877Z,24128
2017-05-07T06:54:38.723Z,27008
2017-05-07T06:56:00.708Z,43488
2017-05-07T06:57:22.948Z,50944
2017-05-07T06:58:44.810Z,50912
2017-05-07T07:00:06.971Z,48576
2017-05-07T07:01:29.817Z,47808
2017-05-07T07:02:51.808Z,48160
2017-05-07T07:04:13.326Z,49632
2017-05-07T07:05:35.540Z,34368
2017-05-07T07:06:57.871Z,30400
2017-05-07T07:08:20.469Z,29824
2017-05-07T07:09:42.335Z,29056
2017-05-07T07:11:04.184Z,36448
2017-05-07T07:12:26.331Z,29056
2017-05-07T07:13:48.943Z,27296
2017-05-07T07:15:11.480Z,26656
2017-05-07T07:16:33.669Z,25216
2017-05-07T07:17:55.857Z,24768
2017-05-07T07:19:18.013Z,25088
2017-05-07T07:20:39.537Z,25632
2017-05-07T07:22:01.701Z,23712
2017-05-07T07:23:24.167Z,22816
2017-05-07T07:24:46.468Z,20896
2017-05-07T07:26:09.019Z,20608
2017-05-07T07:27:31.620Z,21984
2017-05-07T07:28:53.724Z,23008
2017-05-07T07:30:15.573Z,22720
2017-05-07T07:31:37.747Z,22272
2017-05-07T07:33:00.229Z,22784
2017-05-07T07:34:22.397Z,22080
2017-05-07T07:35:44.865Z,21824
2017-05-07T07:37:06.719Z,20256
2017-05-07T07:38:28.567Z,21024
2017-05-07T07:39:51.041Z,19840
2017-05-07T07:41:12.558Z,19744
2017-05-07T07:42:34.727Z,19744
2017-05-07T07:43:56.622Z,19008
2017-05-07T07:45:18.778Z,19200
2017-05-07T07:46:41.263Z,19264
2017-05-07T07:48:03.437Z,19296
2017-05-07T07:49:25.701Z,19200
2017-05-07T07:50:47.235Z,19936
2017-05-07T07:52:09.423Z,18976
2017-05-07T07:53:31.596Z,18272
2017-05-07T07:54:53.459Z,18624
2017-05-07T07:56:15.689Z,19648
2017-05-07T07:57:38.370Z,18976
2017-05-07T07:59:00.841Z,19104
2017-05-07T08:00:22.710Z,18816
2017-05-07T08:01:45.552Z,18240
2017-05-07T08:03:07.731Z,18208
2017-05-07T08:04:30.202Z,18176
2017-05-07T08:05:52.705Z,18368
2017-05-07T08:07:14.966Z,18272
2017-05-07T08:08:37.120Z,17792
2017-05-07T08:10:30.970Z,16952
2017-05-07T08:11:53.630Z,16828
2017-05-07T08:13:15.767Z,17080
2017-05-07T08:14:37.952Z,17164
2017-05-07T08:16:00.192Z,16912
2017-05-07T08:17:22.657Z,16848
2017-05-07T08:18:44.919Z,16556
2017-05-07T08:20:07.074Z,16192
2017-05-07T08:21:28.907Z,15804
2017-05-07T08:22:51.836Z,15512
2017-05-07T08:24:14.329Z,15340
2017-05-07T08:25:36.120Z,15168
2017-05-07T08:26:58.287Z,15436
2017-05-07T08:28:20.779Z,15656
2017-05-07T08:29:42.310Z,15516
2017-05-07T08:31:04.737Z,15544
2017-05-07T08:32:26.958Z,15484
2017-05-07T08:33:49.209Z,15176
2017-05-07T08:35:10.836Z,14560
2017-05-07T08:36:33.039Z,13964
2017-05-07T08:37:54.983Z,14100
2017-05-07T08:39:17.143Z,14760
2017-05-07T08:40:38.691Z,14744
2017-05-07T08:42:00.855Z,14420
2017-05-07T08:43:23.011Z,14516
2017-05-07T08:44:45.599Z,14332
2017-05-07T08:46:07.186Z,14260
2017-05-07T08:47:29.076Z,14096
2017-05-07T08:48:51.256Z,13876
2017-05-07T08:50:13.461Z,13828
2017-05-07T08:51:35.640Z,13564
2017-05-07T08:52:57.397Z,13392
2017-05-07T08:54:19.459Z,13496
2017-05-07T08:55:41.708Z,13512
2017-05-07T08:57:03.554Z,13460
2017-05-07T08:58:25.438Z,13416
2017-05-07T08:59:47.931Z,13252
2017-05-07T09:01:10.727Z,13232
2017-05-07T09:02:32.880Z,13184
2017-05-07T09:03:55.066Z,12688
2017-05-07T09:05:17.511Z,12164
2017-05-07T09:06:40.002Z,12376
2017-05-07T09:08:02.521Z,12804
2017-05-07T09:09:24.762Z,12968
2017-05-07T09:10:47.023Z,13584
2017-05-07T09:12:09.319Z,14076
2017-05-07T09:13:31.209Z,14508
2017-05-07T09:14:53.121Z,15136
2017-05-07T09:16:15.679Z,15224
2017-05-07T09:17:38.548Z,15716
2017-05-07T09:19:00.700Z,15808
2017-05-07T09:20:22.548Z,15500
2017-05-07T09:21:44.710Z,15132
2017-05-07T09:23:07.062Z,15476
2017-05-07T09:24:29.240Z,15664
2017-05-07T09:25:51.298Z,15632
2017-05-07T09:27:12.218Z,15736
2017-05-07T09:28:34.041Z,16836
2017-05-07T09:29:55.279Z,16176
2017-05-07T09:31:17.507Z,14464
2017-05-07T09:32:39.388Z,13452
2017-05-07T09:34:01.659Z,12884
2017-05-07T09:35:23.878Z,12536
2017-05-07T09:36:45.759Z,12340
2017-05-07T09:38:08.283Z,12384
2017-05-07T09:39:30.859Z,13260
2017-05-07T09:40:53.050Z,13540
2017-05-07T09:42:14.918Z,13212
2017-05-07T09:43:37.171Z,12596
2017-05-07T09:44:59.418Z,12616
2017-05-07T09:46:21.628Z,13004
2017-05-07T09:47:43.818Z,13628
2017-05-07T09:49:05.342Z,13672
2017-05-07T09:50:28.141Z,13140
2017-05-07T09:51:50.317Z,12468
2017-05-07T09:53:11.852Z,12988
2017-05-07T09:54:33.384Z,14100
2017-05-07T09:55:55.527Z,14356
2017-05-07T09:57:17.470Z,13332
2017-05-07T09:58:39.756Z,12296
2017-05-07T10:00:00.976Z,12184
2017-05-07T10:01:23.512Z,12732
2017-05-07T10:02:46.049Z,12844
2017-05-07T10:04:08.360Z,12888
2017-05-07T10:05:29.579Z,13212
2017-05-07T10:06:52.069Z,13632
2017-05-07T10:08:14.237Z,14192
2017-05-07T10:09:36.081Z,14536
2017-05-07T10:10:57.617Z,15424
2017-05-07T10:12:20.097Z,15504
2017-05-07T10:13:41.638Z,15436
2017-05-07T10:15:03.523Z,14412
2017-05-07T10:16:25.708Z,13608
2017-05-07T10:17:48.614Z,13524
2017-05-07T10:19:10.179Z,13368
2017-05-07T10:20:32.413Z,14368
2017-05-07T10:21:53.960Z,13440
2017-05-07T10:23:16.814Z,13576
2017-05-07T10:24:39.038Z,14092
2017-05-07T10:26:01.014Z,15468
2017-05-07T10:27:23.177Z,15936
2017-05-07T10:28:45.648Z,14696
2017-05-07T10:30:07.846Z,13316
2017-05-07T10:31:30.169Z,13116
2017-05-07T10:32:52.814Z,13748
2017-05-07T10:34:15.358Z,12884
2017-05-07T10:35:37.909Z,13176
2017-05-07T10:37:00.108Z,13844
2017-05-07T10:38:21.969Z,14252
2017-05-07T10:39:44.172Z,15400
2017-05-07T10:41:06.647Z,16444
2017-05-07T10:42:28.817Z,17792
2017-05-07T10:43:51.306Z,17728
2017-05-07T10:45:14.122Z,17344
2017-05-07T10:46:36.428Z,18144
2017-05-07T10:47:58.698Z,18080
2017-05-07T10:49:20.913Z,17952
2017-05-07T10:50:43.724Z,16008
2017-05-07T10:52:06.111Z,13508
2017-05-07T10:53:28.333Z,12800
2017-05-07T10:54:50.503Z,13392
2017-05-07T10:56:12.412Z,14684
2017-05-07T10:57:34.607Z,16896
2017-05-07T10:58:56.776Z,19200
2017-05-07T11:00:18.957Z,20064
2017-05-07T11:01:41.795Z,19168
2017-05-07T11:03:03.969Z,17504
2017-05-07T11:04:26.820Z,16576
2017-05-07T11:05:48.728Z,16544
2017-05-07T11:07:11.142Z,18016
2017-05-07T11:08:33.436Z,18208
2017-05-07T11:09:55.593Z,19136
2017-05-07T11:11:17.855Z,19488
2017-05-07T11:12:40.603Z,19136
2017-05-07T11:14:02.779Z,19104
2017-05-07T11:15:24.998Z,17536
2017-05-07T11:16:47.525Z,15080
2017-05-07T11:18:10.445Z,14524
2017-05-07T11:19:32.309Z,15580
2017-05-07T11:20:54.476Z,17472
2017-05-07T11:22:17.113Z,18720
2017-05-07T11:23:39.583Z,18624
2017-05-07T11:25:01.760Z,18176
2017-05-07T11:26:23.666Z,16640
2017-05-07T11:27:45.512Z,14036
2017-05-07T11:29:07.096Z,12572
2017-05-07T11:30:28.959Z,12120
2017-05-07T11:31:50.790Z,12380
2017-05-07T11:33:12.735Z,13212
2017-05-07T11:34:35.214Z,14876
2017-05-07T11:35:57.131Z,16736
2017-05-07T11:37:18.977Z,17216
2017-05-07T11:38:41.527Z,15656
2017-05-07T11:40:04.113Z,14212
2017-05-07T11:41:25.636Z,14368
2017-05-07T11:42:47.169Z,13292
2017-05-07T11:44:09.014Z,12880
2017-05-07T11:45:31.217Z,12812
2017-05-07T11:46:53.116Z,13124
2017-05-07T11:48:14.639Z,13368
2017-05-07T11:49:37.321Z,13728
2017-05-07T11:50:59.545Z,14076
2017-05-07T11:52:21.394Z,14444
2017-05-07T11:53:44.007Z,14816
2017-05-07T11:55:05.984Z,15568
2017-05-07T11:56:27.850Z,16368
2017-05-07T11:57:50.035Z,17472
2017-05-07T11:59:11.879Z,18912
2017-05-07T12:00:34.150Z,20192
2017-05-07T12:01:56.614Z,20256
2017-05-07T12:03:18.467Z,19104
2017-05-07T12:04:40.968Z,17952
2017-05-07T12:06:03.446Z,16576
2017-05-07T12:07:25.638Z,14904
2017-05-07T12:08:47.831Z,13248
2017-05-07T12:10:10.328Z,11924
2017-05-07T12:11:32.478Z,11828
2017-05-07T12:12:54.950Z,11844
2017-05-07T12:14:16.809Z,12028
2017-05-07T12:15:38.975Z,12008
2017-05-07T12:17:01.166Z,11984
2017-05-07T12:18:23.307Z,12240
2017-05-07T12:19:45.799Z,12620
2017-05-07T12:21:07.987Z,12980
2017-05-07T12:22:30.173Z,13172
2017-05-07T12:23:52.745Z,12600
2017-05-07T12:25:15.317Z,12024
2017-05-07T12:26:37.216Z,10984
2017-05-07T12:27:59.439Z,11316
2017-05-07T12:29:21.971Z,12028
2017-05-07T12:30:44.456Z,13064
2017-05-07T12:32:06.292Z,13604
2017-05-07T12:33:28.168Z,13196
2017-05-07T12:34:50.868Z,12784
2017-05-07T12:36:13.171Z,11516
2017-05-07T12:37:35.678Z,10336
2017-05-07T12:38:57.839Z,10180
2017-05-07T12:40:20.309Z,10320
2017-05-07T12:41:42.520Z,10144
2017-05-07T12:43:04.710Z,10020
2017-05-07T12:44:27.205Z,9988
2017-05-07T12:45:49.687Z,10288
2017-05-07T12:47:11.302Z,10644
2017-05-07T12:48:33.537Z,11136
2017-05-07T12:49:55.394Z,11868
2017-05-07T12:51:17.558Z,12596
2017-05-07T12:52:39.733Z,12416
2017-05-07T12:54:01.575Z,11064
2017-05-07T12:55:23.419Z,10316
2017-05-07T12:56:45.611Z,9736
2017-05-07T12:58:07.797Z,8668
2017-05-07T12:59:30.026Z,8972
2017-05-07T13:00:52.193Z,9316
2017-05-07T13:02:14.387Z,10396
2017-05-07T13:03:36.867Z,11024
2017-05-07T13:04:59.418Z,10824
2017-05-07T13:06:21.705Z,9908
2017-05-07T13:07:44.140Z,9096
2017-05-07T13:09:06.406Z,8620
2017-05-07T13:10:28.574Z,9040
2017-05-07T13:11:50.804Z,8796
2017-05-07T13:13:13.580Z,8372
2017-05-07T13:14:36.240Z,8560
2017-05-07T13:15:58.102Z,8692
2017-05-07T13:17:20.618Z,8704
2017-05-07T13:18:42.759Z,8596
2017-05-07T13:20:05.102Z,8512
2017-05-07T13:21:27.596Z,8308
2017-05-07T13:22:49.436Z,8480
2017-05-07T13:24:11.870Z,8580
2017-05-07T13:25:34.042Z,8628
2017-05-07T13:26:56.569Z,8628
2017-05-07T13:28:18.152Z,8800
2017-05-07T13:29:40.694Z,9088
2017-05-07T13:31:02.860Z,9112
2017-05-07T13:32:25.059Z,8960
2017-05-07T13:33:47.236Z,8740
2017-05-07T13:35:09.365Z,8596
2017-05-07T13:36:31.950Z,8532
2017-05-07T13:37:54.430Z,8492
2017-05-07T13:39:16.940Z,8472
2017-05-07T13:40:39.098Z,8376
2017-05-07T13:42:01.048Z,8312
2017-05-07T13:43:22.927Z,8212
2017-05-07T13:44:45.416Z,8104
2017-05-07T13:46:07.713Z,7964
2017-05-07T13:47:30.199Z,7828
2017-05-07T13:48:52.042Z,7696
2017-05-07T13:50:13.899Z,7604
2017-05-07T13:51:36.777Z,7476
2017-05-07T13:52:59.254Z,7452
2017-05-07T13:54:21.668Z,7420
2017-05-07T13:55:43.818Z,7400
2017-05-07T13:57:05.973Z,7344
2017-05-07T13:58:28.276Z,7268
2017-05-07T13:59:50.580Z,7212
2017-05-07T14:01:12.438Z,7240
2017-05-07T14:02:34.633Z,7312
2017-05-07T14:03:56.910Z,7408
2017-05-07T14:05:18.855Z,7028
2017-05-07T14:06:41.328Z,7356
2017-05-07T14:08:03.799Z,7452
2017-05-07T14:09:25.318Z,7460
2017-05-07T14:10:47.214Z,7572
2017-05-07T14:12:09.078Z,8556
2017-05-07T14:13:31.828Z,9624
2017-05-07T14:14:53.737Z,10260
2017-05-07T14:16:15.619Z,11012
2017-05-07T14:17:37.494Z,11036
2017-05-07T14:18:59.338Z,10308
2017-05-07T14:20:21.628Z,8744
2017-05-07T14:21:43.868Z,8348
2017-05-07T14:23:06.025Z,7552
2017-05-07T14:24:27.875Z,7332
2017-05-07T14:25:50.048Z,7488
2017-05-07T14:27:12.607Z,7784
2017-05-07T14:28:34.759Z,8088
2017-05-07T14:29:57.658Z,7860
2017-05-07T14:31:20.149Z,8392
2017-05-07T14:32:41.991Z,9292
2017-05-07T14:34:03.207Z,9836
2017-05-07T14:35:25.665Z,9560
2017-05-07T14:36:47.704Z,9124
2017-05-07T14:38:09.655Z,8840
2017-05-07T14:39:32.232Z,8856
2017-05-07T14:40:54.807Z,9064
2017-05-07T14:42:16.956Z,9008
2017-05-07T14:43:39.134Z,9848
2017-05-07T14:45:01.778Z,9856
2017-05-07T14:46:23.947Z,9852
2017-05-07T14:47:46.130Z,9876
2017-05-07T14:49:08.671Z,9484
2017-05-07T14:50:30.519Z,9204
2017-05-07T14:51:52.641Z,9100
2017-05-07T14:53:14.810Z,9044
2017-05-07T14:54:36.998Z,9072
2017-05-07T14:55:59.179Z,9068
2017-05-07T14:57:21.037Z,9048
2017-05-07T14:58:42.565Z,8924
2017-05-07T15:00:05.053Z,8884
2017-05-07T15:01:27.221Z,8684
2017-05-07T15:02:50.127Z,8700
2017-05-07T15:04:12.295Z,8608
2017-05-07T15:05:34.790Z,8572
2017-05-07T15:06:56.984Z,8688
2017-05-07T15:08:19.808Z,8636
2017-05-07T15:09:41.986Z,8500
2017-05-07T15:11:04.253Z,8320
2017-05-07T15:12:25.938Z,8328
2017-05-07T15:13:48.808Z,8248
2017-05-07T15:15:10.974Z,8168
2017-05-07T15:16:33.609Z,8308
2017-05-07T15:17:55.469Z,8468
2017-05-07T15:19:17.914Z,8472
2017-05-07T15:20:39.452Z,8432
2017-05-07T15:22:01.615Z,8376
2017-05-07T15:23:24.107Z,8288
2017-05-07T15:24:46.215Z,8076
2017-05-07T15:26:08.376Z,7736
2017-05-07T15:27:30.669Z,7544
2017-05-07T15:28:53.318Z,7556
2017-05-07T15:30:15.874Z,7544
2017-05-07T15:31:37.737Z,7556
2017-05-07T15:32:59.957Z,7476
2017-05-07T15:34:22.583Z,7500
2017-05-07T15:35:45.010Z,7580
2017-05-07T15:37:06.895Z,7588
2017-05-07T15:38:29.078Z,7536
2017-05-07T15:39:51.587Z,7440
2017-05-07T15:41:14.424Z,7172
2017-05-07T15:42:36.320Z,7132
2017-05-07T15:43:58.267Z,7112
2017-05-07T15:45:20.158Z,7096
2017-05-07T15:46:42.834Z,7152
2017-05-07T15:48:05.336Z,7236
2017-05-07T15:49:27.219Z,7324
2017-05-07T15:50:49.085Z,7344
2017-05-07T15:52:11.639Z,7404
2017-05-07T15:53:33.820Z,7356
2017-05-07T15:54:56.327Z,7264
2017-05-07T15:56:18.863Z,7272
2017-05-07T15:57:41.669Z,7192
2017-05-07T15:59:03.862Z,7092
2017-05-07T16:00:26.195Z,7060
2017-05-07T16:01:47.809Z,7104
2017-05-07T16:03:10.336Z,7096
2017-05-07T16:04:31.982Z,7040
2017-05-07T16:05:54.283Z,7088
2017-05-07T16:07:16.199Z,7112
2017-05-07T16:08:38.162Z,7016
2017-05-07T16:10:00.338Z,6996
2017-05-07T16:11:22.493Z,6968
2017-05-07T16:12:44.982Z,7036
2017-05-07T16:14:07.582Z,7040
2017-05-07T16:15:29.131Z,7040
2017-05-07T16:16:51.416Z,7036
2017-05-07T16:18:13.586Z,7052
2017-05-07T16:19:35.758Z,7076
2017-05-07T16:20:57.720Z,7084
2017-05-07T16:22:20.024Z,7092
2017-05-07T16:23:42.227Z,7060
2017-05-07T16:25:05.040Z,6996
2017-05-07T16:26:26.578Z,6872
2017-05-07T16:27:49.078Z,6768
2017-05-07T16:29:11.568Z,6780
2017-05-07T16:30:34.486Z,6808
2017-05-07T16:31:56.976Z,6760
2017-05-07T16:33:19.185Z,6708
2017-05-07T16:34:41.447Z,6636
2017-05-07T16:36:03.667Z,6484
2017-05-07T16:37:25.847Z,6392
2017-05-07T16:38:48.147Z,6260
2017-05-07T16:40:10.379Z,6240
2017-05-07T16:41:33.455Z,6284
2017-05-07T16:42:55.358Z,6332
2017-05-07T16:44:18.925Z,6396
2017-05-07T16:45:41.437Z,6364
2017-05-07T16:47:04.360Z,6440
2017-05-07T16:48:26.987Z,6240
2017-05-07T16:49:48.926Z,6336
2017-05-07T16:51:11.428Z,6392
2017-05-07T16:52:33.911Z,6396
2017-05-07T16:53:55.451Z,6360
2017-05-07T16:55:18.053Z,6340
2017-05-07T16:56:40.245Z,6264
2017-05-07T16:58:03.070Z,6172
2017-05-07T16:59:25.305Z,6208
2017-05-07T17:00:47.467Z,6260
2017-05-07T17:02:09.787Z,6276
2017-05-07T17:03:32.637Z,6280
2017-05-07T17:04:54.496Z,6244
2017-05-07T17:06:16.339Z,6224
2017-05-07T17:07:38.837Z,6232
2017-05-07T17:09:01.090Z,6332
2017-05-07T17:10:23.257Z,6340
2017-05-07T17:11:45.259Z,6384
2017-05-07T17:13:07.440Z,6348
2017-05-07T17:14:30.359Z,6376
2017-05-07T17:15:52.972Z,6348
2017-05-07T17:17:14.834Z,6304
2017-05-07T17:18:37.565Z,6288
2017-05-07T17:20:00.057Z,6256
2017-05-07T17:21:22.638Z,6164
2017-05-07T17:22:44.816Z,6088
2017-05-07T17:24:07.338Z,5948
2017-05-07T17:25:30.170Z,5828
2017-05-07T17:26:52.387Z,5684
2017-05-07T17:28:14.579Z,5576
2017-05-07T17:29:37.092Z,5500
2017-05-07T17:30:59.259Z,5480
2017-05-07T17:32:21.782Z,5436
2017-05-07T17:33:43.625Z,5412
2017-05-07T17:35:06.127Z,5356
2017-05-07T17:36:28.957Z,5180
2017-05-07T17:37:50.815Z,5012
2017-05-07T17:39:12.999Z,4900
2017-05-07T17:40:34.874Z,4812
2017-05-07T17:41:57.087Z,4680
2017-05-07T17:43:19.245Z,4564
2017-05-07T17:44:41.408Z,4424
2017-05-07T17:46:03.350Z,4340
2017-05-07T17:47:25.539Z,4292
2017-05-07T17:48:47.768Z,4264
2017-05-07T17:50:10.288Z,4264
2017-05-07T17:51:32.464Z,4224
2017-05-07T17:52:55.055Z,4164
2017-05-07T17:54:17.300Z,3972
2017-05-07T17:55:39.820Z,3824
2017-05-07T17:57:01.869Z,3712
2017-05-07T17:58:24.915Z,3612
2017-05-07T17:59:46.826Z,3528
2017-05-07T18:01:09.022Z,3436
2017-05-07T18:02:31.536Z,3336
2017-05-07T18:03:54.336Z,3232
2017-05-07T18:05:16.666Z,3132
2017-05-07T18:06:38.948Z,3036
2017-05-07T18:08:01.458Z,2928
2017-05-07T18:09:23.956Z,2832
2017-05-07T18:10:46.207Z,2756
2017-05-07T18:12:08.758Z,2680
2017-05-07T18:13:31.307Z,2608
2017-05-07T18:14:54.206Z,2528
2017-05-07T18:16:16.887Z,2444
2017-05-07T18:17:39.412Z,2356
2017-05-07T18:19:01.317Z,2276
2017-05-07T18:20:24.149Z,2200
2017-05-07T18:21:47.116Z,2120
2017-05-07T18:23:09.521Z,2040
2017-05-07T18:24:32.158Z,1976